Loraine, California
Current Conditions -  °F | °C
As of 6:55 PM on Tuesday 21 Oct 2014 (Local Time) from KMHV Reporting Station
Clear Clear  
Wind Chill: 61°   Ceiling: Unl
Heat Index: 61°   Visibility: 10mi
Dew Point: 39°   Wind: 28mph
Humidity: 45%   Direction: 280°W
Pressure: 29.89"   Gusts: 33mph
Location:  35.3287°N, 118.419°W
Report Text: KMHV 220155Z AUTO 28024G29KT 10SM CLR 16/04 A2989 RMK AO1
Loading
Personal Weather Stations






























Interactive Weather Map
Tropical Storm Tracking
New forecast layout! Learn more

10-Day Weather Forecast

Advertisements
Track Severe Weather on mobile